Meteo Giornale » Osservazioni meteo Stati Uniti (USA) » Dallas-Addison
ore: 07:47 - Osservazioni Meteo Dallas-Addison
Lat. 32° 58' N Lon. 96° 50' W Alt. 196 metri s.l.m.
28 °C
Nuvoloso
Temp. 24 Ore
28 °C
38 °C
Sud/Sud-Est
13 Km/h
Dew point 19 °C
Umidità 58 %
Visibilità 10 Km
Il sole sorge alle ore 07:02
Il sole tramonta alle ore 19:52
| Data e Ora | Cielo e Fenomeni | T °C | DP °C | Um. % | Pres. hPa | Vis. km | Vento km/h | |
|---|---|---|---|---|---|---|---|---|
| Oggi h: 07:47 | Nuvoloso | 28 | 19 | 58 | 1017 | 10 | S/SE 13 | |
| Oggi h: 06:47 | Sereno | 28 | 18 | 54 | 1017 | 10 | S 7.4 | |
| Oggi h: 05:51 | Sereno | 28 | 18 | 54 | 1016 | 10 | S/SE 9.3 | |
| Oggi h: 05:35 | Sereno | 29 | 20 | 58 | 1016 | 10 | SE 11.1 | |
| Oggi h: 05:17 | Sereno | 29 | 20 | 58 | 1016 | 10 | S/SE 11.1 | |
| Oggi h: 04:55 | Sereno | 30 | 20 | 55 | 1016 | 10 | N 7.4 | |
| Oggi h: 04:35 | Sereno | 30 | 20 | 55 | 1016 | 10 | S 7.4 | |
| Oggi h: 04:15 | Sereno | 30 | 20 | 55 | 1016 | 10 | S/SO 9.3 | |
| Oggi h: 03:55 | Nuvoloso | 30 | 20 | 55 | 1016 | 10 | N 5.5 | |
| Oggi h: 03:35 | Poco Nuvoloso | 31 | 20 | 52 | 1016 | 10 | N 9.3 | |
| Oggi h: 03:15 | Sereno | 31 | 20 | 52 | 1016 | 10 | S 11.1 | |
| Oggi h: 02:55 | Sereno | 31 | 20 | 52 | 1016 | 10 | S/SE 14.8 | |
| Oggi h: 02:35 | Sereno | 31 | 19 | 48 | 1016 | 10 | SE 13 | |
| Oggi h: 02:15 | Poco Nuvoloso | 31 | 19 | 48 | 1016 | 10 | S/SE 14.8 | |
| Oggi h: 01:55 | Molto Nuvoloso | 31 | 19 | 48 | 1016 | 10 | SE 13 | |
| Oggi h: 01:35 | Coperto | 31 | 18 | 45 | 1016 | 10 | SE 13 | |
| Oggi h: 01:15 | Molto Nuvoloso | 32 | 18 | 43 | 1015 | 10 | SE 16.7 | |
| Oggi h: 00:56 | Sereno | 32 | 18 | 43 | 1015 | 10 | SE 16.7 | |
| Oggi h: 00:35 | Sereno | 32 | 17 | 40 | 1015 | 10 | SE 16.7 | |
| Oggi h: 00:15 | Sereno | 32 | 17 | 40 | 1015 | 10 | SE 14.8 | |
| Ieri h: 23:55 | Sereno | 33 | 17 | 38 | 1015 | 10 | E/SE 11.1 | |
| Ieri h: 23:35 | Sereno | 33 | 16 | 36 | 1014 | 10 | SE 11.1 | |
| Ieri h: 23:15 | Sereno | 33 | 16 | 36 | 1015 | 10 | S/SE 9.3 | |
| Ieri h: 22:55 | Sereno | 33 | 16 | 36 | 1014 | 10 | SE 11.1 | |
| Ieri h: 22:35 | Sereno | 34 | 16 | 34 | 1015 | 10 | S/SE 11.1 | |
| Ieri h: 22:15 | Sereno | 33 | 16 | 36 | 1014 | 10 | S/SE 11.1 | |
| Ieri h: 21:56 | Sereno | 33 | 16 | 36 | 1014 | 10 | S/SE 7.4 | |
| Ieri h: 21:47 | Sereno | 34 | 16 | 34 | 1014 | 10 | S/SE 11.1 | |
| Ieri h: 21:35 | Sereno | 34 | 15 | 32 | 1014 | 10 | S/SE 11.1 | |
| Ieri h: 20:47 | Sereno | 35 | 14 | 28 | 1014 | 10 | S/SE 13 | |
| Ieri h: 19:47 | Poco Nuvoloso | 36 | 12 | 23 | 1014 | 10 | S/SE 13 | |
| Ieri h: 18:47 | Nuvoloso | 37 | 13 | 23 | 1014 | 10 | S/SE 16.7 | |
| Ieri h: 17:47 | Nuvoloso | 37 | 13 | 23 | 1014 | 10 | SE 18.5 | |
| Ieri h: 16:50 | Nuvoloso | 38 | 13 | 22 | 1014 | 10 | SE 22.2 | |
| Ieri h: 15:47 | Nuvoloso | 38 | 15 | 25 | 1015 | 10 | SE 16.7 | |
| Ieri h: 14:47 | Nuvoloso | 36 | 13 | 25 | 1016 | 10 | E/SE 11.1 | |
| Ieri h: 13:47 | Nuvoloso | 36 | 14 | 26 | 1016 | 10 | S/SO 14.8 | |
| Ieri h: 12:47 | Poco Nuvoloso | 36 | 16 | 30 | 1017 | 10 | S 11.1 | |
| Ieri h: 11:47 | Sereno | 34 | 17 | 36 | 1018 | 10 | S/SO 7.4 | |
| Ieri h: 10:47 | Sereno | 32 | 15 | 35 | 1018 | 10 | S 16.7 | |
| Ieri h: 09:52 | Sereno | 31 | 18 | 45 | 1017 | 10 | S 13 | |
| Ieri h: 08:47 | Sereno | 29 | 18 | 51 | 1017 | 10 | S/SO 7.4 | |



